createdAt,value
2023-02-25T00:00:21.283Z,3.68
2023-02-25T00:03:10.273Z,3.65
2023-02-25T00:05:40.426Z,3.65
2023-02-25T00:08:09.456Z,3.62
2023-02-25T00:10:38.250Z,3.59
2023-02-25T00:13:17.777Z,3.59
2023-02-25T00:15:47.587Z,3.59
2023-02-25T00:18:16.788Z,3.59
2023-02-25T00:20:45.641Z,3.61
2023-02-25T00:23:14.572Z,3.57
2023-02-25T00:25:45.574Z,3.57
2023-02-25T00:28:15.976Z,3.57
2023-02-25T00:30:44.879Z,3.55
2023-02-25T00:33:14.280Z,3.55
2023-02-25T00:35:43.520Z,3.59
2023-02-25T00:38:16.004Z,3.57
2023-02-25T00:40:47.826Z,3.59
2023-02-25T00:43:16.646Z,3.55
2023-02-25T00:45:45.815Z,3.57
2023-02-25T00:48:15.263Z,3.57
2023-02-25T00:50:44.123Z,3.61
2023-02-25T00:53:12.927Z,3.59
2023-02-25T00:55:42.309Z,3.57
2023-02-25T00:58:11.984Z,3.58
2023-02-25T01:00:51.738Z,3.58
2023-02-25T01:03:21.634Z,3.57
2023-02-25T01:05:50.723Z,3.57
2023-02-25T01:08:20.617Z,3.59
2023-02-25T01:10:49.776Z,3.61
2023-02-25T01:13:18.707Z,3.62
2023-02-25T01:15:49.538Z,3.62
2023-02-25T01:18:20.087Z,3.63
2023-02-25T01:20:48.978Z,3.62
2023-02-25T01:23:17.767Z,3.61
2023-02-25T01:25:46.636Z,3.61
2023-02-25T01:28:15.918Z,3.62
2023-02-25T01:30:45.121Z,3.58
2023-02-25T01:33:14.190Z,3.57
2023-02-25T01:35:43.023Z,3.58
2023-02-25T01:38:12.350Z,3.58
2023-02-25T01:40:41.192Z,3.57
2023-02-25T01:43:15.552Z,3.55
2023-02-25T01:45:44.120Z,3.55
2023-02-25T01:48:17.246Z,3.55
2023-02-25T01:50:50.148Z,3.52
2023-02-25T01:53:24.418Z,3.50
2023-02-25T01:55:55.224Z,3.50
2023-02-25T01:58:25.415Z,3.48
2023-02-25T02:00:55.147Z,3.48
2023-02-25T02:03:28.208Z,3.47
2023-02-25T02:06:06.071Z,3.43
2023-02-25T02:08:36.884Z,3.47
2023-02-25T02:11:06.186Z,3.45
2023-02-25T02:13:38.543Z,3.43
2023-02-25T02:16:22.387Z,3.41
2023-02-25T02:18:57.361Z,3.40
2023-02-25T02:21:48.262Z,3.41
2023-02-25T02:24:45.929Z,3.40
2023-02-25T02:27:24.089Z,3.38
2023-02-25T02:30:25.829Z,3.40
2023-02-25T02:33:03.188Z,3.37
2023-02-25T02:35:39.290Z,3.38
2023-02-25T02:38:14.289Z,3.38
2023-02-25T02:40:57.962Z,3.37
2023-02-25T02:43:40.166Z,3.38
2023-02-25T02:46:18.145Z,3.35
2023-02-25T02:48:55.426Z,3.37
2023-02-25T02:51:31.798Z,3.37
2023-02-25T02:54:05.774Z,3.40
2023-02-25T02:56:39.013Z,3.38
2023-02-25T02:59:12.247Z,3.35
2023-02-25T03:01:45.980Z,3.38
2023-02-25T03:04:21.465Z,3.38
2023-02-25T03:06:56.340Z,3.37
2023-02-25T03:09:30.293Z,3.38
2023-02-25T03:12:00.111Z,3.37
2023-02-25T03:14:29.219Z,3.38
2023-02-25T03:17:05.261Z,3.37
2023-02-25T03:19:39.994Z,3.37
2023-02-25T03:22:15.864Z,3.37
2023-02-25T03:24:49.977Z,3.31
2023-02-25T03:27:25.813Z,3.31
2023-02-25T03:30:03.733Z,3.32
2023-02-25T03:32:41.182Z,3.32
2023-02-25T03:35:12.880Z,3.30
2023-02-25T03:37:44.282Z,3.26
2023-02-25T03:40:16.338Z,3.28
2023-02-25T03:42:49.900Z,3.26
2023-02-25T03:45:21.556Z,3.21
2023-02-25T03:47:51.265Z,3.21
2023-02-25T03:50:21.697Z,3.20
2023-02-25T03:52:55.510Z,3.18
2023-02-25T03:55:46.841Z,3.14
2023-02-25T03:58:18.375Z,3.13
2023-02-25T04:00:50.678Z,3.07
2023-02-25T04:03:20.077Z,3.00
2023-02-25T04:05:48.942Z,2.98
2023-02-25T04:08:19.091Z,2.93
2023-02-25T04:10:48.421Z,2.90
2023-02-25T04:13:20.357Z,2.83
2023-02-25T04:15:50.786Z,2.82
2023-02-25T04:18:19.739Z,2.76
2023-02-25T04:20:48.511Z,2.75
2023-02-25T04:23:17.648Z,2.71
2023-02-25T04:25:46.502Z,2.71
2023-02-25T04:28:15.442Z,2.64
2023-02-25T04:30:44.713Z,2.64
2023-02-25T04:33:14.115Z,2.61
2023-02-25T04:35:43.780Z,2.60
2023-02-25T04:38:12.614Z,2.58
2023-02-25T04:40:42.303Z,2.57
2023-02-25T04:43:14.190Z,2.54
2023-02-25T04:45:43.049Z,2.53
2023-02-25T04:48:12.044Z,2.51
2023-02-25T04:50:41.156Z,2.48
2023-02-25T04:53:09.977Z,2.48
2023-02-25T04:55:38.926Z,2.50
2023-02-25T04:58:07.769Z,2.45
2023-02-25T05:00:40.082Z,2.48
2023-02-25T05:03:08.873Z,2.44
2023-02-25T05:05:38.178Z,2.43
2023-02-25T05:08:07.089Z,2.43
2023-02-25T05:10:36.631Z,2.40
2023-02-25T05:13:06.090Z,2.38
2023-02-25T05:15:34.936Z,2.33
2023-02-25T05:18:04.939Z,2.33
2023-02-25T05:20:33.826Z,2.33
2023-02-25T05:23:02.671Z,2.33
2023-02-25T05:25:33.155Z,2.29
2023-02-25T05:28:02.048Z,2.30
2023-02-25T05:30:31.025Z,2.29
2023-02-25T05:32:59.841Z,2.27
2023-02-25T05:35:28.652Z,2.27
2023-02-25T05:37:57.986Z,2.29
2023-02-25T05:40:27.187Z,2.30
2023-02-25T05:42:57.465Z,2.27
2023-02-25T05:45:26.306Z,2.26
2023-02-25T05:47:56.847Z,2.29
2023-02-25T05:50:25.631Z,2.26
2023-02-25T05:52:54.669Z,2.27
2023-02-25T05:55:26.568Z,2.24
2023-02-25T05:57:55.385Z,2.26
2023-02-25T06:00:24.449Z,2.26
2023-02-25T06:02:53.298Z,2.29
2023-02-25T06:05:22.082Z,2.29
2023-02-25T06:07:51.041Z,2.29
2023-02-25T06:10:21.784Z,2.30
2023-02-25T06:12:50.927Z,2.32
2023-02-25T06:15:20.397Z,2.30
2023-02-25T06:17:49.760Z,2.36
2023-02-25T06:20:19.166Z,2.36
2023-02-25T06:22:48.113Z,2.36
2023-02-25T06:25:17.122Z,2.38
2023-02-25T06:27:45.917Z,2.40
2023-02-25T06:30:15.234Z,2.38
2023-02-25T06:32:44.184Z,2.44
2023-02-25T06:35:14.076Z,2.44
2023-02-25T06:37:43.070Z,2.47
2023-02-25T06:40:15.145Z,2.47
2023-02-25T06:42:44.326Z,2.48
2023-02-25T06:45:13.255Z,2.51
2023-02-25T06:47:42.362Z,2.53
2023-02-25T06:50:12.867Z,2.53
2023-02-25T06:52:41.657Z,2.54
2023-02-25T06:55:11.673Z,2.54
2023-02-25T06:57:49.352Z,2.57
2023-02-25T07:00:19.773Z,2.57
2023-02-25T07:02:48.674Z,2.58
2023-02-25T07:05:17.860Z,2.62
2023-02-25T07:07:47.149Z,2.62
2023-02-25T07:10:16.145Z,2.65
2023-02-25T07:12:45.362Z,2.68
2023-02-25T07:15:14.252Z,2.72
2023-02-25T07:17:43.158Z,2.71
2023-02-25T07:20:13.810Z,2.75
2023-02-25T07:22:43.125Z,2.78
2023-02-25T07:25:12.682Z,2.79
2023-02-25T07:27:45.676Z,2.81
2023-02-25T07:30:15.511Z,2.85
2023-02-25T07:32:45.186Z,2.82
2023-02-25T07:35:14.789Z,2.86
2023-02-25T07:37:43.688Z,2.90
2023-02-25T07:40:15.969Z,2.93
2023-02-25T07:42:45.149Z,3.00
2023-02-25T07:45:14.530Z,3.11
2023-02-25T07:47:43.477Z,3.18
2023-02-25T07:50:13.311Z,3.20
2023-02-25T07:52:42.373Z,3.23
2023-02-25T07:55:12.571Z,3.27
2023-02-25T07:57:42.050Z,3.28
2023-02-25T08:00:13.386Z,3.31
2023-02-25T08:02:43.389Z,3.31
2023-02-25T08:05:12.416Z,3.37
2023-02-25T08:07:41.230Z,3.38
2023-02-25T08:10:12.173Z,3.41
2023-02-25T08:12:42.615Z,3.48
2023-02-25T08:15:12.508Z,3.52
2023-02-25T08:17:41.377Z,3.58
2023-02-25T08:20:14.198Z,3.61
2023-02-25T08:22:43.115Z,3.63
2023-02-25T08:25:11.973Z,3.65
2023-02-25T08:27:43.543Z,3.69
2023-02-25T08:30:14.634Z,3.75
2023-02-25T08:32:43.777Z,3.80
2023-02-25T08:35:13.795Z,3.92
2023-02-25T08:37:44.903Z,4.04
2023-02-25T08:40:14.471Z,4.14
2023-02-25T08:42:43.832Z,4.22
2023-02-25T08:45:13.001Z,4.34
2023-02-25T08:47:42.046Z,4.38
2023-02-25T08:50:12.676Z,4.41
2023-02-25T08:52:42.335Z,4.45
2023-02-25T08:55:14.324Z,4.47
2023-02-25T08:57:43.971Z,4.48
2023-02-25T09:00:15.434Z,4.49
2023-02-25T09:02:44.552Z,4.51
2023-02-25T09:05:13.848Z,4.52
2023-02-25T09:07:42.785Z,4.54
2023-02-25T09:10:13.608Z,4.56
2023-02-25T09:12:45.979Z,4.56
2023-02-25T09:15:15.202Z,4.61
2023-02-25T09:17:44.011Z,4.71
2023-02-25T09:20:13.068Z,4.79
2023-02-25T09:22:41.896Z,4.90
2023-02-25T09:25:11.467Z,5.06
2023-02-25T09:27:44.246Z,5.27
2023-02-25T09:30:14.899Z,5.69
2023-02-25T09:32:44.874Z,6.01
2023-02-25T09:35:13.910Z,6.21
2023-02-25T09:37:42.760Z,6.35
2023-02-25T09:40:16.715Z,6.32
2023-02-25T09:42:53.408Z,6.28
2023-02-25T09:45:25.014Z,6.11
2023-02-25T09:47:58.530Z,5.97
2023-02-25T09:50:32.071Z,5.87
2023-02-25T09:53:10.939Z,5.82
2023-02-25T09:55:44.554Z,5.79
2023-02-25T09:58:24.135Z,5.84
2023-02-25T10:01:01.880Z,5.87
2023-02-25T10:03:45.668Z,5.90
2023-02-25T10:06:22.233Z,5.93
2023-02-25T10:08:59.489Z,5.93
2023-02-25T10:11:41.031Z,5.90
2023-02-25T10:14:22.249Z,5.80
2023-02-25T10:16:59.442Z,5.74
2023-02-25T10:19:43.233Z,5.70
2023-02-25T10:22:34.119Z,5.61
2023-02-25T10:25:12.047Z,5.48
2023-02-25T10:27:50.550Z,5.37
2023-02-25T10:30:26.212Z,5.28
2023-02-25T10:32:55.777Z,5.21
2023-02-25T10:35:28.145Z,5.18
2023-02-25T10:37:56.987Z,5.18
2023-02-25T10:40:28.751Z,5.22
2023-02-25T10:43:01.558Z,5.21
2023-02-25T10:45:32.396Z,5.24
2023-02-25T10:48:06.931Z,5.28
2023-02-25T10:50:45.395Z,5.29
2023-02-25T10:53:17.286Z,5.27
2023-02-25T10:55:51.756Z,5.28
2023-02-25T10:58:28.245Z,5.25
2023-02-25T11:01:01.661Z,5.20
2023-02-25T11:03:32.901Z,5.14
2023-02-25T11:06:20.676Z,5.04
2023-02-25T11:08:52.221Z,5.03
2023-02-25T11:11:24.219Z,5.04
2023-02-25T11:14:05.294Z,5.06
2023-02-25T11:16:37.488Z,5.08
2023-02-25T11:19:17.633Z,5.17
2023-02-25T11:21:47.766Z,5.27
2023-02-25T11:24:23.320Z,5.27
2023-02-25T11:26:53.436Z,5.32
2023-02-25T11:29:26.092Z,5.38
2023-02-25T11:31:59.556Z,5.45
2023-02-25T11:34:31.264Z,5.53
2023-02-25T11:37:24.692Z,5.63
2023-02-25T11:39:56.281Z,5.69
2023-02-25T11:42:26.850Z,5.83
2023-02-25T11:45:01.918Z,5.97
2023-02-25T11:47:33.729Z,6.04
2023-02-25T11:50:24.024Z,6.05
2023-02-25T11:53:04.015Z,6.01
2023-02-25T11:55:53.303Z,5.91
2023-02-25T11:58:37.722Z,5.77
2023-02-25T12:01:17.329Z,5.56
2023-02-25T12:04:05.804Z,5.38
2023-02-25T12:06:51.931Z,5.21
2023-02-25T12:09:43.124Z,5.12
2023-02-25T12:12:44.265Z,5.08
2023-02-25T12:16:03.844Z,5.07
2023-02-25T12:19:14.828Z,4.96
2023-02-25T12:22:12.486Z,4.82
2023-02-25T12:25:12.387Z,4.80
2023-02-25T12:27:54.398Z,4.75
2023-02-25T12:30:52.420Z,4.71
2023-02-25T12:33:56.703Z,4.76
2023-02-25T12:36:42.334Z,4.86
2023-02-25T12:39:26.667Z,4.93
2023-02-25T12:42:05.499Z,5.03
2023-02-25T12:45:09.882Z,5.15
2023-02-25T12:47:57.465Z,5.34
2023-02-25T12:50:52.615Z,5.46
2023-02-25T12:53:37.875Z,5.61
2023-02-25T12:56:28.651Z,5.77
2023-02-25T12:59:11.574Z,5.86
2023-02-25T13:02:12.732Z,5.83
2023-02-25T13:04:58.517Z,5.70
2023-02-25T13:07:48.650Z,5.55
2023-02-25T13:10:34.621Z,5.45
2023-02-25T13:13:20.292Z,5.39
2023-02-25T13:16:04.231Z,5.41
2023-02-25T13:18:41.851Z,5.39
2023-02-25T13:21:35.543Z,5.49
2023-02-25T13:24:17.537Z,5.59
2023-02-25T13:27:13.495Z,5.62
2023-02-25T13:30:12.828Z,5.48
2023-02-25T13:32:54.656Z,5.38
2023-02-25T13:35:38.786Z,5.22
2023-02-25T13:38:23.680Z,5.21
2023-02-25T13:41:06.589Z,5.17
2023-02-25T13:44:05.655Z,5.20
2023-02-25T13:46:52.809Z,5.21
2023-02-25T13:49:50.940Z,5.17
2023-02-25T13:52:28.633Z,5.24
2023-02-25T13:55:23.491Z,5.22
2023-02-25T13:58:13.061Z,5.20
2023-02-25T14:01:00.158Z,5.18
2023-02-25T14:04:19.259Z,5.14
2023-02-25T14:07:10.836Z,5.20
2023-02-25T14:09:46.115Z,5.27
2023-02-25T14:12:33.603Z,5.34
2023-02-25T14:15:32.572Z,5.28
2023-02-25T14:18:20.006Z,5.12
2023-02-25T14:21:05.447Z,5.01
2023-02-25T14:23:45.893Z,4.89
2023-02-25T14:26:30.534Z,4.82
2023-02-25T14:29:20.311Z,4.77
2023-02-25T14:32:01.865Z,4.75
2023-02-25T14:34:56.375Z,4.71
2023-02-25T14:37:39.587Z,4.65
2023-02-25T14:40:25.593Z,4.65
2023-02-25T14:43:26.659Z,4.62
2023-02-25T14:46:00.707Z,4.58
2023-02-25T14:48:39.272Z,4.55
2023-02-25T14:51:35.094Z,4.48
2023-02-25T14:54:41.550Z,4.42
2023-02-25T14:57:45.147Z,4.34
2023-02-25T15:00:51.541Z,4.29
2023-02-25T15:03:50.454Z,4.18
2023-02-25T15:06:37.242Z,4.14
2023-02-25T15:09:31.021Z,4.10
2023-02-25T15:12:16.832Z,4.03
2023-02-25T15:15:26.217Z,4.00
2023-02-25T15:18:22.906Z,3.97
2023-02-25T15:20:53.071Z,3.93
2023-02-25T15:23:41.141Z,3.89
2023-02-25T15:26:23.811Z,3.88
2023-02-25T15:28:54.930Z,3.82
2023-02-25T15:31:30.265Z,3.80
2023-02-25T15:34:38.074Z,3.79
2023-02-25T15:37:29.881Z,3.78
2023-02-25T15:40:02.267Z,3.76
2023-02-25T15:42:48.045Z,3.78
2023-02-25T15:45:52.111Z,3.76
2023-02-25T15:48:39.311Z,3.72
2023-02-25T15:51:32.241Z,3.73
2023-02-25T15:54:02.686Z,3.72
2023-02-25T15:56:48.111Z,3.72
2023-02-25T15:59:43.285Z,3.69
2023-02-25T16:02:45.884Z,3.69
2023-02-25T16:05:25.146Z,3.65
2023-02-25T16:08:13.363Z,3.63
2023-02-25T16:10:46.162Z,3.58
2023-02-25T16:13:21.749Z,3.54
2023-02-25T16:15:55.921Z,3.52
2023-02-25T16:18:27.287Z,3.51
2023-02-25T16:21:05.768Z,3.52
2023-02-25T16:23:40.622Z,3.48
2023-02-25T16:26:22.137Z,3.45
2023-02-25T16:29:00.518Z,3.44
2023-02-25T16:31:38.996Z,3.44
2023-02-25T16:34:16.717Z,3.43
2023-02-25T16:36:54.526Z,3.44
2023-02-25T16:39:29.944Z,3.44
2023-02-25T16:42:06.022Z,3.43
2023-02-25T16:44:38.667Z,3.41
2023-02-25T16:47:23.601Z,3.43
2023-02-25T16:49:54.734Z,3.38
2023-02-25T16:52:29.919Z,3.38
2023-02-25T16:55:04.791Z,3.35
2023-02-25T16:57:38.394Z,3.35
2023-02-25T17:00:16.606Z,3.30
2023-02-25T17:02:47.530Z,3.27
2023-02-25T17:05:29.959Z,3.23
2023-02-25T17:08:01.591Z,3.21
2023-02-25T17:10:33.359Z,3.16
2023-02-25T17:13:04.278Z,3.13
2023-02-25T17:15:35.316Z,3.09
2023-02-25T17:18:09.991Z,3.09
2023-02-25T17:20:41.534Z,3.06
2023-02-25T17:23:12.294Z,3.06
2023-02-25T17:25:45.556Z,3.04
2023-02-25T17:28:21.761Z,3.06
2023-02-25T17:30:54.640Z,3.06
2023-02-25T17:33:26.995Z,3.06
2023-02-25T17:35:59.835Z,3.07
2023-02-25T17:38:30.502Z,3.07
2023-02-25T17:41:00.324Z,3.07
2023-02-25T17:43:36.801Z,3.13
2023-02-25T17:46:21.390Z,3.11
2023-02-25T17:48:55.607Z,3.13
2023-02-25T17:51:33.371Z,3.11
2023-02-25T17:54:08.402Z,3.13
2023-02-25T17:56:42.911Z,3.09
2023-02-25T17:59:38.119Z,3.07
2023-02-25T18:02:29.268Z,3.07
2023-02-25T18:05:21.770Z,3.03
2023-02-25T18:08:10.536Z,3.02
2023-02-25T18:10:46.269Z,3.00
2023-02-25T18:13:24.238Z,3.00
2023-02-25T18:16:34.292Z,2.92
2023-02-25T18:19:23.311Z,2.93
2023-02-25T18:21:53.399Z,2.93
2023-02-25T18:24:29.094Z,2.92
2023-02-25T18:27:26.536Z,2.93
2023-02-25T18:29:59.655Z,2.90
2023-02-25T18:32:28.963Z,2.92
2023-02-25T18:34:58.641Z,2.89
2023-02-25T18:37:31.716Z,2.89
2023-02-25T18:40:01.083Z,2.88
2023-02-25T18:42:30.397Z,2.85
2023-02-25T18:44:59.478Z,2.83
2023-02-25T18:47:33.125Z,2.86
2023-02-25T18:50:02.370Z,2.85
2023-02-25T18:52:31.651Z,2.89
2023-02-25T18:55:00.720Z,2.90
2023-02-25T18:57:30.156Z,2.88
2023-02-25T18:59:59.205Z,2.92
2023-02-25T19:02:31.685Z,2.95
2023-02-25T19:05:02.666Z,2.93
2023-02-25T19:07:34.514Z,2.95
2023-02-25T19:10:07.391Z,2.96
2023-02-25T19:12:40.666Z,2.96
2023-02-25T19:15:15.756Z,2.96
2023-02-25T19:17:45.907Z,2.99
2023-02-25T19:20:20.904Z,2.95
2023-02-25T19:22:52.623Z,2.98
2023-02-25T19:25:23.933Z,2.96
2023-02-25T19:27:55.745Z,2.95
2023-02-25T19:30:28.652Z,2.92
2023-02-25T19:33:03.532Z,2.88
2023-02-25T19:35:39.025Z,2.93
2023-02-25T19:38:11.542Z,2.88
2023-02-25T19:40:40.641Z,2.88
2023-02-25T19:43:09.895Z,2.85
2023-02-25T19:45:42.137Z,2.85
2023-02-25T19:48:11.647Z,2.79
2023-02-25T19:50:42.315Z,2.81
2023-02-25T19:53:11.738Z,2.82
2023-02-25T19:55:43.750Z,2.78
2023-02-25T19:58:12.953Z,2.78
2023-02-25T20:00:46.841Z,2.76
2023-02-25T20:03:16.529Z,2.75
2023-02-25T20:05:45.495Z,2.75
2023-02-25T20:08:14.406Z,2.73
2023-02-25T20:10:44.145Z,2.73
2023-02-25T20:13:13.656Z,2.72
2023-02-25T20:15:42.508Z,2.72
2023-02-25T20:18:11.658Z,2.69
2023-02-25T20:20:42.704Z,2.68
2023-02-25T20:23:12.028Z,2.68
2023-02-25T20:25:42.020Z,2.68
2023-02-25T20:28:11.876Z,2.65
2023-02-25T20:30:40.848Z,2.69
2023-02-25T20:33:11.510Z,2.67
2023-02-25T20:35:42.640Z,2.67
2023-02-25T20:38:29.531Z,2.65
2023-02-25T20:40:59.529Z,2.65
2023-02-25T20:43:28.926Z,2.65
2023-02-25T20:45:58.697Z,2.62
2023-02-25T20:48:32.264Z,2.61
2023-02-25T20:51:01.792Z,2.61
2023-02-25T20:53:32.851Z,2.61
2023-02-25T20:56:01.886Z,2.60
2023-02-25T20:58:31.491Z,2.58
2023-02-25T21:01:00.902Z,2.60
2023-02-25T21:03:30.932Z,2.54
2023-02-25T21:06:00.588Z,2.53
2023-02-25T21:08:29.844Z,2.50
2023-02-25T21:10:59.374Z,2.47
2023-02-25T21:13:28.927Z,2.47
2023-02-25T21:16:00.393Z,2.41
2023-02-25T21:18:31.429Z,2.38
2023-02-25T21:21:07.760Z,2.34
2023-02-25T21:23:39.039Z,2.32
2023-02-25T21:26:09.734Z,2.32
2023-02-25T21:28:41.049Z,2.26
2023-02-25T21:31:12.073Z,2.26
2023-02-25T21:33:42.186Z,2.26
2023-02-25T21:36:12.457Z,2.21
2023-02-25T21:38:41.739Z,2.18
2023-02-25T21:41:12.930Z,2.17
2023-02-25T21:43:43.010Z,2.17
2023-02-25T21:46:18.284Z,2.16
2023-02-25T21:48:55.158Z,2.14
2023-02-25T21:51:25.977Z,2.12
2023-02-25T21:53:56.748Z,2.12
2023-02-25T21:56:27.434Z,2.10
2023-02-25T21:58:58.591Z,2.16
2023-02-25T22:01:29.931Z,2.13
2023-02-25T22:03:59.754Z,2.10
2023-02-25T22:06:29.559Z,2.06
2023-02-25T22:08:59.169Z,2.07
2023-02-25T22:11:31.208Z,2.02
2023-02-25T22:14:02.336Z,1.98
2023-02-25T22:16:31.620Z,1.93
2023-02-25T22:19:00.678Z,1.95
2023-02-25T22:21:31.814Z,1.90
2023-02-25T22:24:02.487Z,1.93
2023-02-25T22:26:34.605Z,1.93
2023-02-25T22:29:06.842Z,1.89
2023-02-25T22:31:40.877Z,1.86
2023-02-25T22:34:11.195Z,1.86
2023-02-25T22:36:43.748Z,1.85
2023-02-25T22:39:20.117Z,1.83
2023-02-25T22:41:53.852Z,1.79
2023-02-25T22:44:23.629Z,1.77
2023-02-25T22:46:55.290Z,1.75
2023-02-25T22:49:26.363Z,1.74
2023-02-25T22:51:56.627Z,1.68
2023-02-25T22:54:27.722Z,1.68
2023-02-25T22:56:59.671Z,1.67
2023-02-25T22:59:29.067Z,1.64
2023-02-25T23:01:59.871Z,1.62
2023-02-25T23:04:30.846Z,1.60
2023-02-25T23:07:04.612Z,1.57
2023-02-25T23:09:33.750Z,1.55
2023-02-25T23:12:03.577Z,1.51
2023-02-25T23:14:35.101Z,1.53
2023-02-25T23:17:04.107Z,1.49
2023-02-25T23:19:33.099Z,1.47
2023-02-25T23:22:03.849Z,1.47
2023-02-25T23:24:33.459Z,1.40
2023-02-25T23:27:03.300Z,1.39
2023-02-25T23:29:32.439Z,1.40
2023-02-25T23:32:02.385Z,1.34
2023-02-25T23:34:31.912Z,1.33
2023-02-25T23:37:04.597Z,1.33
2023-02-25T23:39:34.191Z,1.32
2023-02-25T23:42:03.191Z,1.29
2023-02-25T23:44:32.248Z,1.26
2023-02-25T23:47:01.827Z,1.29
2023-02-25T23:49:31.357Z,1.25
2023-02-25T23:52:08.433Z,1.26
2023-02-25T23:54:38.610Z,1.26
2023-02-25T23:57:07.752Z,1.25
2023-02-25T23:59:37.838Z,1.23
